Time;durP1;ratioP1;P1;durP2;ratioP2;P2;SDS_P1;SDS_P2;PMS_P1;PMS_P2;Temp;Humidity;BMP_temperature;BMP_pressure;BME280_temperature;BME280_humidity;BME280_pressure;Samples;Min_cycle;Max_cycle;Signal;HPM_P1;HPM_P2
2022/07/23 00:00:52;;;;;;;14.85;4.07;;;;;;;24.92;47.86;100674.88;5052025;28;20124;-77
2022/07/23 00:03:17;;;;;;;8.43;3.97;;;;;;;24.88;47.98;100691.84;5052075;28;20036;-78
2022/07/23 00:05:43;;;;;;;13.45;4.28;;;;;;;24.87;47.86;100684.63;5052252;28;20067;-78
2022/07/23 00:08:09;;;;;;;10.20;4.50;;;;;;;24.80;48.25;100677.41;5051694;28;20085;-76
2022/07/23 00:10:35;;;;;;;7.82;3.83;;;;;;;24.63;48.53;100671.53;5052048;28;20104;-78
2022/07/23 00:13:00;;;;;;;13.38;3.70;;;;;;;24.66;48.22;100684.88;5051825;28;20475;-78
2022/07/23 00:15:26;;;;;;;7.78;3.58;;;;;;;24.51;48.55;100673.25;5051916;28;20138;-79
2022/07/23 00:17:51;;;;;;;10.80;4.10;;;;;;;24.56;48.58;100689.94;5051687;28;20083;-79
2022/07/23 00:20:17;;;;;;;25.63;4.68;;;;;;;24.44;48.87;100677.91;5051874;28;20052;-79
2022/07/23 00:23:01;;;;;;;16.90;4.13;;;;;;;24.39;48.68;100680.47;5051706;28;20487;-78
2022/07/23 00:25:27;;;;;;;11.20;4.57;;;;;;;24.30;48.95;100677.09;5044463;28;20033;-78
2022/07/23 00:27:52;;;;;;;10.07;3.75;;;;;;;24.39;49.08;100685.97;5046255;28;20665;-79
2022/07/23 00:30:18;;;;;;;13.73;4.28;;;;;;;24.38;48.95;100678.78;5053758;28;20033;-78
2022/07/23 00:32:58;;;;;;;14.07;4.25;;;;;;;24.35;49.15;100679.19;5034668;28;20475;-78
2022/07/23 00:35:26;;;;;;;8.57;4.38;;;;;;;24.42;48.98;100685.53;5075458;28;20029;-78
2022/07/23 00:37:52;;;;;;;15.32;4.82;;;;;;;24.36;48.81;100680.91;5065151;28;20108;-78
2022/07/23 00:40:17;;;;;;;7.00;4.00;;;;;;;24.34;49.16;100685.78;5055249;28;20025;-79
2022/07/23 00:42:43;;;;;;;14.10;4.25;;;;;;;24.21;49.17;100683.03;5055498;28;20044;-78
2022/07/23 00:45:09;;;;;;;15.43;5.20;;;;;;;24.17;49.39;100677.09;5055398;28;20032;-79
2022/07/23 00:47:35;;;;;;;9.85;3.92;;;;;;;24.21;49.18;100697.63;5055369;28;20025;-78
2022/07/23 00:50:01;;;;;;;8.77;4.10;;;;;;;24.21;49.41;100688.53;5065121;28;20120;-78
2022/07/23 00:52:26;;;;;;;13.77;3.90;;;;;;;24.16;49.69;100682.78;5075237;28;20539;-79
2022/07/23 00:54:52;;;;;;;12.63;3.40;;;;;;;24.04;49.62;100667.97;5075164;28;20025;-79
2022/07/23 00:57:18;;;;;;;26.50;4.63;;;;;;;24.11;49.42;100683.44;5075001;28;20052;-78
2022/07/23 00:59:43;;;;;;;16.85;3.75;;;;;;;24.12;49.59;100689.78;5056983;28;20031;-78
2022/07/23 01:02:09;;;;;;;6.28;3.47;;;;;;;24.05;49.51;100686.16;5075122;28;20025;-78
2022/07/23 01:04:34;;;;;;;10.85;3.72;;;;;;;24.01;49.60;100679.38;5074931;28;20448;-78
2022/07/23 01:07:00;;;;;;;10.93;4.00;;;;;;;23.96;49.62;100666.28;5074905;28;20021;-78
2022/07/23 01:09:26;;;;;;;12.88;3.78;;;;;;;23.97;49.41;100686.38;5075079;28;20020;-78
2022/07/23 01:11:54;;;;;;;12.23;3.67;;;;;;;23.90;49.67;100677.28;5075142;28;20073;-78
2022/07/23 01:14:20;;;;;;;9.68;3.28;;;;;;;23.90;49.84;100682.75;5075383;28;20042;-78
2022/07/23 01:16:47;;;;;;;7.88;3.85;;;;;;;23.93;49.48;100679.59;5074909;28;20375;-79
2022/07/23 01:19:13;;;;;;;14.07;3.35;;;;;;;23.96;49.30;100681.91;5074863;28;20425;-78
2022/07/23 01:21:46;;;;;;;18.60;4.30;;;;;;;23.95;49.55;100672.81;5074739;28;20066;-79
2022/07/23 01:24:13;;;;;;;13.40;3.65;;;;;;;23.97;49.18;100675.38;5074507;28;20052;-79
2022/07/23 01:26:42;;;;;;;17.02;3.58;;;;;;;23.90;49.19;100669.88;5074643;28;20093;-78
2022/07/23 01:29:08;;;;;;;12.32;3.75;;;;;;;23.97;48.89;100672.63;5074331;28;20096;-77
2022/07/23 01:31:33;;;;;;;9.25;3.38;;;;;;;24.04;48.68;100665.22;5074323;28;20103;-78
2022/07/23 01:33:59;;;;;;;6.22;3.22;;;;;;;24.13;48.28;100669.47;5055107;28;20441;-78
2022/07/23 01:36:24;;;;;;;7.65;3.10;;;;;;;24.11;47.85;100674.34;5051106;28;20021;-78
2022/07/23 01:38:50;;;;;;;13.32;4.18;;;;;;;24.20;48.00;100673.06;5074864;28;20025;-79
2022/07/23 01:41:16;;;;;;;9.50;2.85;;;;;;;24.20;47.61;100664.84;5059737;28;20041;-78
2022/07/23 01:43:42;;;;;;;6.00;3.22;;;;;;;24.23;47.54;100659.75;5045511;28;20032;-78
2022/07/23 01:46:07;;;;;;;13.23;3.85;;;;;;;24.33;47.25;100667.56;5053582;28;20029;-77
2022/07/23 01:48:33;;;;;;;11.30;3.90;;;;;;;24.30;47.34;100659.75;5045603;28;20590;-78
2022/07/23 01:50:58;;;;;;;10.32;3.58;;;;;;;24.39;46.97;100669.47;5047069;28;20418;-78
2022/07/23 01:53:24;;;;;;;11.70;3.95;;;;;;;24.44;46.92;100666.06;5045554;28;20078;-78
2022/07/23 01:55:49;;;;;;;22.80;3.78;;;;;;;24.42;47.14;100658.06;5034243;28;20645;-78
2022/07/23 01:58:14;;;;;;;7.50;3.00;;;;;;;24.49;46.58;100658.88;5048361;28;20112;-78
2022/07/23 02:00:40;;;;;;;10.90;3.75;;;;;;;24.56;46.71;100658.84;5073815;28;20085;-78
2022/07/23 02:03:05;;;;;;;10.45;3.42;;;;;;;24.58;46.52;100660.34;5074303;28;20024;-78
2022/07/23 02:05:31;;;;;;;19.98;3.60;;;;;;;24.60;46.76;100655.47;5055944;28;20032;-78
2022/07/23 02:07:57;;;;;;;6.55;3.60;;;;;;;24.57;46.76;100660.56;5069382;28;20009;-78
2022/07/23 02:10:23;;;;;;;6.38;3.33;;;;;;;24.52;46.90;100665.88;5053567;28;20047;-78
2022/07/23 02:12:49;;;;;;;13.02;3.70;;;;;;;24.42;47.40;100659.94;5053541;28;20783;-78
2022/07/23 02:15:14;;;;;;;11.95;4.43;;;;;;;24.44;47.27;100663.31;5053528;28;20028;-78
2022/07/23 02:17:40;;;;;;;9.20;3.92;;;;;;;24.37;47.16;100655.09;5053627;28;20527;-79
2022/07/23 02:20:07;;;;;;;16.60;3.85;;;;;;;24.31;47.76;100661.47;5042714;28;20875;-78
2022/07/23 02:22:33;;;;;;;8.50;3.38;;;;;;;24.26;47.89;100670.31;5033574;28;20061;-78
2022/07/23 02:24:59;;;;;;;26.77;5.70;;;;;;;24.16;48.28;100658.06;5047740;28;20064;-78
2022/07/23 02:27:24;;;;;;;11.52;3.92;;;;;;;24.18;48.60;100661.47;5051391;28;20086;-79
2022/07/23 02:29:50;;;;;;;12.90;4.05;;;;;;;24.20;48.64;100664.84;5038825;28;20044;-78
2022/07/23 02:32:15;;;;;;;9.10;4.40;;;;;;;24.23;48.72;100665.25;5052998;28;20090;-78
2022/07/23 02:34:41;;;;;;;24.83;4.85;;;;;;;24.18;48.82;100665.06;5050143;28;20029;-78
2022/07/23 02:37:08;;;;;;;10.23;4.03;;;;;;;24.08;48.87;100661.00;5053017;28;20064;-79
2022/07/23 02:39:34;;;;;;;11.82;4.30;;;;;;;24.13;49.28;100674.97;5053200;28;20047;-79
2022/07/23 02:42:00;;;;;;;19.88;4.93;;;;;;;24.09;49.40;100659.94;5049963;28;20033;-79
2022/07/23 02:44:25;;;;;;;26.67;5.60;;;;;;;24.13;49.20;100680.47;5047488;28;20035;-78
2022/07/23 02:46:51;;;;;;;12.93;5.25;;;;;;;24.09;49.71;100673.69;5052637;28;20071;-78
2022/07/23 02:49:16;;;;;;;12.90;6.20;;;;;;;24.12;49.30;100678.81;5052445;28;20036;-78
2022/07/23 02:51:42;;;;;;;16.10;5.13;;;;;;;24.06;49.40;100668.63;5033164;28;20528;-79
2022/07/23 02:54:07;;;;;;;18.83;5.63;;;;;;;24.06;49.40;100672.22;5032822;28;20030;-78
2022/07/23 02:56:33;;;;;;;11.50;5.35;;;;;;;23.92;49.59;100656.78;5038888;28;20084;-78
2022/07/23 02:58:58;;;;;;;24.70;5.95;;;;;;;24.01;49.46;100682.13;5052730;28;20040;-78
2022/07/23 03:01:23;;;;;;;37.60;6.70;;;;;;;23.98;49.41;100677.06;5040507;28;20407;-77
2022/07/23 03:03:49;;;;;;;21.38;6.63;;;;;;;23.93;49.51;100682.34;5037700;28;20029;-77
2022/07/23 03:06:14;;;;;;;30.90;5.40;;;;;;;23.81;49.40;100677.47;5052381;28;20048;-78
2022/07/23 03:08:40;;;;;;;30.60;6.95;;;;;;;23.72;49.75;100665.00;5029021;28;20024;-78
2022/07/23 03:11:10;;;;;;;20.20;6.18;;;;;;;23.61;49.92;100682.09;5072651;28;20032;-78
2022/07/23 03:13:36;;;;;;;18.10;4.93;;;;;;;23.68;49.89;100699.44;5060494;28;20029;-79
2022/07/23 03:16:03;;;;;;;31.13;6.68;;;;;;;23.66;49.66;100690.56;5053307;28;20380;-79
2022/07/23 03:18:28;;;;;;;29.90;6.85;;;;;;;23.69;49.70;100690.16;5052917;28;20043;-78
2022/07/23 03:20:54;;;;;;;19.65;7.10;;;;;;;23.73;49.54;100699.63;5052304;28;20386;-78
2022/07/23 03:23:19;;;;;;;36.40;8.10;;;;;;;23.72;49.66;100710.84;5052401;28;20024;-77
2022/07/23 03:25:46;;;;;;;26.48;7.60;;;;;;;23.72;49.92;100695.22;5052210;28;20111;-77
2022/07/23 03:28:12;;;;;;;30.75;8.35;;;;;;;23.75;49.87;100700.31;5052071;28;20378;-77
2022/07/23 03:30:37;;;;;;;25.52;7.13;;;;;;;23.79;49.77;100706.22;5052330;28;20025;-77
2022/07/23 03:33:03;;;;;;;30.70;8.43;;;;;;;23.69;49.87;100706.63;5052074;28;20287;-77
2022/07/23 03:35:28;;;;;;;35.92;7.18;;;;;;;23.64;49.92;100703.63;5052243;28;20029;-77
2022/07/23 03:37:54;;;;;;;33.15;8.13;;;;;;;23.63;50.11;100701.13;5052002;28;20398;-76
2022/07/23 03:40:19;;;;;;;28.30;7.03;;;;;;;23.64;49.94;100706.38;5051870;28;20029;-76
2022/07/23 03:42:45;;;;;;;36.28;7.43;;;;;;;23.65;50.25;100713.56;5051822;28;20097;-78
2022/07/23 03:45:11;;;;;;;21.85;6.95;;;;;;;23.70;49.88;100707.44;5051674;28;20544;-76
2022/07/23 03:47:36;;;;;;;24.88;6.53;;;;;;;23.65;50.20;100699.84;5051618;28;20036;-77
2022/07/23 03:50:03;;;;;;;28.27;7.22;;;;;;;23.72;50.03;100711.69;5051320;28;20033;-77
2022/07/23 03:52:28;;;;;;;25.67;6.97;;;;;;;23.76;49.75;100712.09;5051407;28;20086;-77
2022/07/23 03:54:54;;;;;;;35.30;7.07;;;;;;;23.81;49.75;100706.84;5051442;28;20032;-77
2022/07/23 03:57:19;;;;;;;19.02;6.30;;;;;;;23.81;49.45;100706.84;5051255;28;20088;-78
2022/07/23 03:59:44;;;;;;;19.17;6.57;;;;;;;23.88;49.16;100712.34;5052742;28;20025;-77
2022/07/23 04:02:10;;;;;;;26.33;6.25;;;;;;;23.89;49.00;100692.91;5055616;28;20491;-77
2022/07/23 04:04:35;;;;;;;21.98;6.10;;;;;;;24.05;49.06;100710.88;5055914;28;20025;-79
2022/07/23 04:07:01;;;;;;;20.55;5.93;;;;;;;24.12;48.80;100711.78;5056553;28;20028;-79
2022/07/23 04:09:26;;;;;;;22.88;6.28;;;;;;;24.09;48.47;100702.03;5053381;28;20021;-78
2022/07/23 04:11:52;;;;;;;19.42;6.07;;;;;;;24.22;47.92;100712.19;5056496;28;20033;-77
2022/07/23 04:14:17;;;;;;;15.60;6.18;;;;;;;24.25;47.16;100706.25;5042510;28;20508;-78
2022/07/23 04:16:42;;;;;;;13.00;4.63;;;;;;;24.31;47.03;100711.75;5043155;28;20475;-78
2022/07/23 04:19:08;;;;;;;17.88;5.25;;;;;;;24.38;46.81;100715.38;5055046;28;20017;-78
2022/07/23 04:21:33;;;;;;;14.30;3.80;;;;;;;24.45;46.67;100717.25;5036742;28;20032;-78
2022/07/23 04:23:59;;;;;;;13.32;5.03;;;;;;;24.51;46.38;100711.75;5054651;28;20035;-78
2022/07/23 04:26:24;;;;;;;20.08;5.30;;;;;;;24.62;46.54;100715.75;5055042;28;20025;-77
2022/07/23 04:28:50;;;;;;;16.77;5.18;;;;;;;24.66;46.55;100719.78;5073672;28;20028;-78
2022/07/23 04:31:15;;;;;;;17.27;5.72;;;;;;;24.70;46.25;100715.53;5075242;28;20024;-78
2022/07/23 04:33:41;;;;;;;21.10;6.63;;;;;;;24.81;46.22;100721.25;5074966;28;20112;-79
2022/07/23 04:36:06;;;;;;;15.73;4.63;;;;;;;24.94;46.07;100712.13;5075068;28;20028;-78
2022/07/23 04:38:32;;;;;;;16.65;5.28;;;;;;;25.03;45.80;100709.97;5075250;28;20120;-78
2022/07/23 04:40:58;;;;;;;13.43;4.90;;;;;;;25.09;45.90;100711.84;5074950;28;20029;-79
2022/07/23 04:43:23;;;;;;;21.83;5.10;;;;;;;25.16;45.67;100710.78;5067961;28;20044;-85
2022/07/23 04:45:49;;;;;;;29.98;5.97;;;;;;;25.22;46.00;100712.66;5054364;28;20021;-80
2022/07/23 04:48:14;;;;;;;14.63;5.28;;;;;;;25.30;45.81;100720.69;5054391;28;20052;-77
2022/07/23 04:50:40;;;;;;;26.35;6.50;;;;;;;25.30;45.99;100708.81;5054340;28;20352;-77
2022/07/23 04:53:05;;;;;;;29.25;7.38;;;;;;;25.42;45.84;100720.81;5054429;28;20029;-77
2022/07/23 04:55:31;;;;;;;39.28;6.95;;;;;;;25.48;45.87;100708.94;5054128;28;20111;-76
2022/07/23 04:57:56;;;;;;;26.50;6.70;;;;;;;25.55;45.78;100714.44;5042108;28;20087;-77
2022/07/23 05:00:22;;;;;;;19.73;6.32;;;;;;;25.66;45.74;100717.34;5052682;28;20048;-78
2022/07/23 05:02:47;;;;;;;59.17;8.63;;;;;;;25.65;45.83;100715.66;5052037;28;20027;-78
2022/07/23 05:05:13;;;;;;;29.95;7.18;;;;;;;25.71;45.64;100719.44;5051750;28;20033;-77
2022/07/23 05:07:38;;;;;;;39.00;7.95;;;;;;;25.70;45.84;100715.84;5034315;28;20025;-79
2022/07/23 05:10:04;;;;;;;25.52;7.13;;;;;;;25.76;46.15;100717.72;5050504;28;20509;-81
2022/07/23 05:12:30;;;;;;;37.83;7.28;;;;;;;25.80;46.45;100724.47;5052660;28;20541;-81
2022/07/23 05:14:55;;;;;;;40.97;8.23;;;;;;;25.82;46.65;100721.47;5019503;28;20103;-80
2022/07/23 05:17:21;;;;;;;40.08;9.07;;;;;;;25.87;46.65;100733.53;5035570;28;20018;-80
2022/07/23 05:19:46;;;;;;;21.98;7.85;;;;;;;25.91;46.72;100721.00;5035308;28;20066;-77
2022/07/23 05:22:12;;;;;;;38.13;9.25;;;;;;;25.99;46.81;100723.47;5046918;28;20442;-80
2022/07/23 05:24:37;;;;;;;31.98;7.90;;;;;;;26.05;46.64;100715.41;5035462;28;20026;-78
2022/07/23 05:27:03;;;;;;;28.88;7.68;;;;;;;26.16;46.91;100728.47;5034371;28;20022;-80
2022/07/23 05:29:28;;;;;;;35.20;7.55;;;;;;;26.22;46.76;100725.69;5035085;28;20523;-80
2022/07/23 05:31:53;;;;;;;29.65;7.97;;;;;;;26.25;46.55;100716.09;5017857;28;20045;-79
2022/07/23 05:34:19;;;;;;;37.33;9.02;;;;;;;26.33;46.68;100713.91;5035133;28;20025;-80
2022/07/23 05:36:45;;;;;;;35.33;9.18;;;;;;;26.42;46.46;100711.72;5047118;28;20026;-84
2022/07/23 05:39:10;;;;;;;39.83;8.30;;;;;;;26.55;46.52;100717.09;5054738;28;20028;-78
2022/07/23 05:41:36;;;;;;;43.95;8.07;;;;;;;26.63;46.39;100718.75;5053282;28;20552;-77
2022/07/23 05:44:01;;;;;;;46.20;8.32;;;;;;;26.74;46.48;100723.50;5050361;28;20086;-78
2022/07/23 05:46:27;;;;;;;33.40;7.82;;;;;;;26.82;46.62;100721.31;5052543;28;20441;-81
2022/07/23 05:48:52;;;;;;;33.03;8.93;;;;;;;26.82;46.21;100699.22;5052546;28;20079;-80
2022/07/23 05:51:22;;;;;;;39.63;8.88;;;;;;;27.01;46.14;100716.66;5035336;28;20044;-79
2022/07/23 05:53:48;;;;;;;29.38;8.77;;;;;;;27.07;46.13;100712.13;5053485;28;20028;-78
2022/07/23 05:56:14;;;;;;;31.88;8.35;;;;;;;27.17;46.30;100720.72;5052510;28;20745;-80
2022/07/23 05:58:40;;;;;;;32.28;8.18;;;;;;;27.29;46.21;100710.56;5053255;28;20072;-79
2022/07/23 06:01:05;;;;;;;30.17;8.40;;;;;;;27.37;46.03;100713.00;5053166;28;20718;-81
2022/07/23 06:03:31;;;;;;;30.05;7.75;;;;;;;27.43;46.07;100715.72;5053707;28;20592;-79
2022/07/23 06:05:56;;;;;;;33.13;10.88;;;;;;;27.54;45.88;100714.97;5052180;28;20048;-77
2022/07/23 06:08:22;;;;;;;38.67;10.80;;;;;;;27.56;45.20;100714.72;5053812;28;20395;-79
2022/07/23 06:10:47;;;;;;;48.03;9.85;;;;;;;27.69;45.30;100714.53;5053219;28;20039;-80
2022/07/23 06:13:13;;;;;;;25.77;8.95;;;;;;;27.78;45.14;100723.34;5056186;28;20064;-80
2022/07/23 06:15:38;;;;;;;37.55;8.82;;;;;;;27.84;44.61;100716.84;5053274;28;20078;-78
2022/07/23 06:18:04;;;;;;;52.47;9.30;;;;;;;27.92;44.62;100720.13;5054255;28;20025;-80
2022/07/23 06:20:29;;;;;;;41.63;7.90;;;;;;;27.92;44.44;100719.31;5053899;28;20079;-79
2022/07/23 06:22:54;;;;;;;29.52;8.07;;;;;;;28.05;43.56;100717.19;5053053;28;20024;-78
2022/07/23 06:25:20;;;;;;;33.95;8.25;;;;;;;28.07;43.80;100717.78;5053269;28;20108;-79
2022/07/23 06:27:46;;;;;;;34.38;7.80;;;;;;;28.16;43.88;100714.72;5052591;28;20080;-84
2022/07/23 06:30:13;;;;;;;35.88;7.53;;;;;;;28.24;43.18;100725.41;5054056;28;20797;-79
2022/07/23 06:32:38;;;;;;;44.38;9.27;;;;;;;28.34;43.05;100718.22;5036879;28;20044;-87
2022/07/23 06:35:04;;;;;;;32.53;8.70;;;;;;;28.43;43.03;100715.94;5054754;28;20316;-81
2022/07/23 06:37:30;;;;;;;41.30;9.57;;;;;;;28.51;43.06;100724.72;5053612;28;20037;-80
2022/07/23 06:39:55;;;;;;;21.73;7.03;;;;;;;28.51;42.70;100719.19;5043047;28;20063;-83
2022/07/23 06:42:21;;;;;;;24.67;7.90;;;;;;;28.65;42.60;100719.84;5054057;28;20029;-85
2022/07/23 06:44:46;;;;;;;21.25;8.02;;;;;;;28.70;42.74;100725.50;5053620;28;20025;-87
2022/07/23 06:47:12;;;;;;;28.38;8.65;;;;;;;28.78;42.56;100727.88;5053867;28;20082;-79
2022/07/23 06:49:37;;;;;;;16.65;7.60;;;;;;;28.81;42.62;100723.78;5037167;28;20044;-86
2022/07/23 06:52:13;;;;;;;44.95;7.50;;;;;;;28.87;42.14;100718.13;5057942;28;20025;-87
2022/07/23 06:54:53;;;;;;;30.30;6.93;;;;;;;28.96;41.86;100719.44;5056177;28;20148;-89
2022/07/23 06:57:23;;;;;;;38.10;7.63;;;;;;;28.98;41.58;100713.66;5037302;28;20053;-90
2022/07/23 06:59:48;;;;;;;26.20;6.78;;;;;;;29.05;41.73;100719.94;5035949;28;20033;-90
2022/07/23 07:02:13;;;;;;;25.83;6.18;;;;;;;29.25;41.64;100722.31;5035991;28;20036;-87
2022/07/23 07:04:39;;;;;;;24.50;7.60;;;;;;;29.31;41.01;100732.41;5017813;28;20394;-87
2022/07/23 07:07:04;;;;;;;33.53;7.05;;;;;;;29.30;40.84;100719.63;5034380;28;20040;-87
2022/07/23 07:09:30;;;;;;;44.80;8.32;;;;;;;29.40;40.89;100719.84;5034905;28;20080;-85
2022/07/23 07:11:56;;;;;;;30.98;7.45;;;;;;;29.41;41.25;100725.16;5018065;28;20819;-87
2022/07/23 07:14:22;;;;;;;30.25;6.03;;;;;;;29.50;41.01;100720.91;5024023;28;20065;-87
2022/07/23 07:16:47;;;;;;;34.33;6.78;;;;;;;29.46;40.26;100716.09;5034888;28;20053;-86
2022/07/23 07:19:13;;;;;;;24.45;7.13;;;;;;;29.59;40.30;100718.59;5034656;28;20029;-84
2022/07/23 07:21:39;;;;;;;21.70;7.18;;;;;;;29.67;40.19;100726.50;5034995;28;20060;-85
2022/07/23 07:24:06;;;;;;;28.23;6.13;;;;;;;29.64;39.95;100691.81;5035686;28;20026;-87
2022/07/23 07:26:31;;;;;;;18.02;5.85;;;;;;;29.91;39.06;100722.56;5037319;28;20056;-86
2022/07/23 07:28:57;;;;;;;21.77;5.65;;;;;;;30.00;38.76;100715.50;5017728;28;20026;-87
2022/07/23 07:31:22;;;;;;;35.83;5.28;;;;;;;30.00;38.50;100712.72;5034023;28;20033;-84
2022/07/23 07:33:48;;;;;;;15.90;4.03;;;;;;;30.09;38.39;100711.22;5016618;28;20476;-83
2022/07/23 07:36:13;;;;;;;13.95;5.05;;;;;;;30.12;38.33;100705.19;5034584;28;20063;-87
2022/07/23 07:38:39;;;;;;;11.35;4.95;;;;;;;30.14;37.69;100714.13;5034695;28;20062;-88
2022/07/23 07:41:04;;;;;;;17.67;6.22;;;;;;;30.31;37.91;100724.34;5017901;28;20041;-85
2022/07/23 07:43:30;;;;;;;18.00;5.15;;;;;;;30.44;38.14;100729.63;5035745;28;20029;-85
2022/07/23 07:45:55;;;;;;;29.38;5.93;;;;;;;30.51;37.58;100730.28;5034786;28;20025;-84
2022/07/23 07:48:21;;;;;;;14.98;5.47;;;;;;;30.58;37.80;100728.19;5034621;28;20033;-84
2022/07/23 07:50:46;;;;;;;11.50;5.30;;;;;;;30.65;37.29;100714.97;5033686;28;20026;-85
2022/07/23 07:53:12;;;;;;;16.42;5.93;;;;;;;30.72;37.30;100710.94;5035389;28;20542;-84
2022/07/23 07:55:43;;;;;;;19.92;5.07;;;;;;;30.74;36.20;100716.22;5035157;28;20468;-84
2022/07/23 07:58:08;;;;;;;21.53;4.90;;;;;;;30.77;35.98;100707.38;5013699;28;20061;-85
2022/07/23 08:00:34;;;;;;;13.63;5.10;;;;;;;30.85;37.59;100731.09;5015340;28;20292;-83
2022/07/23 08:03:00;;;;;;;15.27;4.70;;;;;;;30.77;37.43;100715.69;5015471;28;20057;-85
2022/07/23 08:05:28;;;;;;;14.05;4.80;;;;;;;30.74;37.59;100718.97;5015655;28;20026;-84
2022/07/23 08:07:58;;;;;;;6.47;3.60;;;;;;;30.71;36.52;100719.50;5014748;28;20056;-85
2022/07/23 08:10:26;;;;;;;10.40;3.42;;;;;;;30.74;36.66;100730.09;5014264;28;20025;-85
2022/07/23 08:12:53;;;;;;;10.30;3.80;;;;;;;30.68;39.00;100720.00;5014539;28;20049;-84
2022/07/23 08:15:20;;;;;;;13.43;3.97;;;;;;;30.47;38.06;100723.56;5014297;28;20157;-85
2022/07/23 08:17:47;;;;;;;12.30;4.88;;;;;;;30.36;39.76;100730.03;5014547;28;20029;-86
2022/07/23 08:20:15;;;;;;;16.25;5.07;;;;;;;30.48;40.46;100730.81;5014272;28;20120;-86
2022/07/23 08:23:11;;;;;;;14.65;4.65;;;;;;;30.51;39.76;100719.19;5013380;28;20026;-86
2022/07/23 08:25:42;;;;;;;17.15;4.45;;;;;;;30.69;37.72;100727.25;5012148;28;20500;-86
2022/07/23 08:28:12;;;;;;;5.78;3.80;;;;;;;30.69;37.79;100724.47;5013713;28;20030;-86
2022/07/23 08:30:39;;;;;;;27.38;5.20;;;;;;;30.76;38.41;100722.38;5013849;28;20132;-87
2022/07/23 08:33:13;;;;;;;10.55;4.00;;;;;;;30.81;38.19;100728.00;5014305;28;20037;-86
2022/07/23 08:35:42;;;;;;;15.13;6.30;;;;;;;30.83;38.71;100723.00;5014428;28;20037;-84
2022/07/23 08:38:09;;;;;;;12.65;4.38;;;;;;;30.84;38.04;100733.03;5014278;28;20440;-85
2022/07/23 08:40:38;;;;;;;8.60;4.28;;;;;;;30.75;38.22;100731.78;5014009;28;20037;-86
2022/07/23 08:43:05;;;;;;;14.82;4.45;;;;;;;30.87;37.71;100729.75;5014383;28;20026;-85
2022/07/23 08:45:36;;;;;;;15.38;4.50;;;;;;;30.67;37.59;100724.72;5016015;28;20101;-86
2022/07/23 08:48:02;;;;;;;13.48;4.40;;;;;;;30.42;38.54;100720.72;5017786;28;20051;-85
2022/07/23 08:50:28;;;;;;;14.80;4.13;;;;;;;30.43;38.71;100739.88;5017989;28;20030;-85
2022/07/23 08:52:54;;;;;;;20.70;4.28;;;;;;;30.43;39.20;100734.31;5018012;28;20458;-85
2022/07/23 08:55:21;;;;;;;13.15;3.92;;;;;;;30.49;38.96;100738.00;5018054;28;20021;-85
2022/07/23 08:57:49;;;;;;;14.25;4.25;;;;;;;30.54;37.87;100736.19;5033004;28;20107;-85
2022/07/23 09:00:15;;;;;;;20.42;5.38;;;;;;;30.55;37.77;100728.72;5037697;28;20468;-87
2022/07/23 09:02:42;;;;;;;13.30;4.43;;;;;;;30.66;37.55;100738.88;5038280;28;20095;-85
2022/07/23 09:05:12;;;;;;;7.80;4.07;;;;;;;30.79;37.45;100741.31;5037457;28;20475;-86
2022/07/23 09:07:58;;;;;;;15.02;5.05;;;;;;;30.75;36.57;100737.34;5036967;28;20033;-85
2022/07/23 09:10:23;;;;;;;12.45;3.78;;;;;;;30.67;36.47;100735.00;5037182;28;20067;-85
2022/07/23 09:12:49;;;;;;;18.98;5.43;;;;;;;30.59;36.39;100732.63;5020374;28;20033;-85
2022/07/23 09:15:14;;;;;;;18.10;5.00;;;;;;;30.60;36.48;100737.09;5037273;28;20065;-85
2022/07/23 09:17:42;;;;;;;13.77;4.18;;;;;;;30.68;35.94;100731.97;5017895;28;20092;-79
2022/07/23 09:20:13;;;;;;;30.13;5.60;;;;;;;30.80;35.83;100742.97;5022882;28;20018;-81
2022/07/23 09:22:44;;;;;;;26.63;4.55;;;;;;;30.85;35.05;100731.09;5017131;28;20030;-79
2022/07/23 09:25:16;;;;;;;12.77;4.38;;;;;;;30.98;35.11;100741.84;5027619;28;20130;-88
2022/07/23 09:27:46;;;;;;;17.17;4.53;;;;;;;31.05;34.67;100745.31;5035747;28;20108;-81
2022/07/23 09:30:12;;;;;;;15.75;4.22;;;;;;;31.03;34.39;100747.50;5025167;28;20030;-81
2022/07/23 09:32:39;;;;;;;16.00;3.92;;;;;;;31.04;34.95;100736.13;5016461;28;20503;-82
2022/07/23 09:35:05;;;;;;;19.50;5.07;;;;;;;31.13;34.54;100742.91;5016014;28;20037;-81
2022/07/23 09:37:30;;;;;;;7.18;3.13;;;;;;;31.09;34.28;100755.66;5022007;28;20033;-79
2022/07/23 09:40:07;;;;;;;12.93;3.50;;;;;;;31.08;34.28;100753.97;5055675;28;20017;-85
2022/07/23 09:42:33;;;;;;;10.63;4.28;;;;;;;31.10;34.42;100751.78;5051433;28;20025;-86
2022/07/23 09:44:59;;;;;;;14.90;4.50;;;;;;;31.16;34.51;100738.81;5035961;28;20033;-83
2022/07/23 09:47:28;;;;;;;12.65;5.13;;;;;;;31.10;34.87;100750.94;5036070;28;20037;-79
2022/07/23 09:50:08;;;;;;;17.85;4.20;;;;;;;31.15;34.86;100742.69;5037379;28;20021;-78
2022/07/23 09:52:36;;;;;;;34.80;6.78;;;;;;;31.10;34.77;100739.84;5039336;28;20103;-80
2022/07/23 09:55:04;;;;;;;11.70;3.97;;;;;;;31.19;34.30;100747.44;5035546;28;20192;-79
2022/07/23 09:57:31;;;;;;;9.00;3.85;;;;;;;31.16;34.51;100742.41;5032052;28;20053;-77
2022/07/23 10:00:01;;;;;;;17.42;4.03;;;;;;;31.24;34.35;100741.97;5035213;28;20040;-78
2022/07/23 10:02:28;;;;;;;15.10;3.78;;;;;;;31.19;34.67;100739.09;5017721;28;20029;-79
2022/07/23 10:04:54;;;;;;;9.43;4.00;;;;;;;31.29;34.85;100717.00;5034416;28;20075;-83
2022/07/23 10:07:23;;;;;;;19.02;4.47;;;;;;;31.34;35.50;100720.97;5044359;28;20104;-81
2022/07/23 10:09:52;;;;;;;6.05;4.32;;;;;;;31.48;35.78;100725.03;5036779;28;20024;-82
2022/07/23 10:15:06;;;;;;;11.45;4.43;;;;;;;31.59;36.48;100733.25;5045426;28;20036;-79
2022/07/23 10:17:31;;;;;;;16.63;3.78;;;;;;;31.69;36.76;100733.38;5032772;28;20031;-80
2022/07/23 10:19:57;;;;;;;15.73;4.05;;;;;;;31.70;37.42;100728.66;5035747;28;20026;-81
2022/07/23 10:22:26;;;;;;;10.85;4.70;;;;;;;31.70;37.79;100726.72;5033973;28;20044;-79
2022/07/23 10:24:54;;;;;;;16.77;4.53;;;;;;;31.76;38.62;100730.41;5032475;28;20406;-80
2022/07/23 10:27:26;;;;;;;21.95;5.35;;;;;;;31.76;39.45;100728.47;5033402;28;20087;-78
2022/07/23 10:30:13;;;;;;;15.20;4.30;;;;;;;31.82;39.28;100729.34;5033386;28;20034;-77
2022/07/23 10:33:16;;;;;;;10.77;4.05;;;;;;;31.86;40.31;100736.06;5034696;28;20087;-78
2022/07/23 10:36:00;;;;;;;8.70;4.10;;;;;;;31.79;40.63;100727.94;5035519;28;20031;-80
2022/07/23 10:39:12;;;;;;;10.35;4.47;;;;;;;31.70;42.15;100726.72;5038166;28;20021;-77
2022/07/23 10:41:41;;;;;;;9.18;4.13;;;;;;;31.69;42.69;100721.41;4993565;28;20038;-76
2022/07/23 10:44:17;;;;;;;7.30;4.22;;;;;;;31.78;43.04;100722.63;5012996;28;20061;-77
2022/07/23 10:49:33;;;;;;;11.98;4.18;;;;;;;31.97;43.27;100718.38;5023569;28;20380;-76
2022/07/23 10:52:13;;;;;;;14.85;4.10;;;;;;;31.88;43.18;100719.94;5036337;28;20547;-77
2022/07/23 10:54:52;;;;;;;8.77;4.10;;;;;;;31.93;43.76;100717.22;5032058;28;20064;-77
2022/07/23 10:57:21;;;;;;;18.73;4.65;;;;;;;31.94;43.79;100713.34;5046748;28;20067;-77
2022/07/23 11:00:15;;;;;;;9.38;4.65;;;;;;;31.90;43.93;100712.16;5047180;28;20025;-76
2022/07/23 11:02:43;;;;;;;30.05;4.97;;;;;;;31.95;43.05;100714.19;5045298;28;20031;-77
2022/07/23 11:05:11;;;;;;;13.82;4.50;;;;;;;31.84;43.71;100721.56;5036461;28;20500;-77
2022/07/23 11:08:02;;;;;;;18.73;4.15;;;;;;;31.90;42.74;100714.94;5042270;28;20412;-80
2022/07/23 11:10:39;;;;;;;14.05;4.07;;;;;;;31.78;42.95;100717.91;5036360;28;20053;-81
2022/07/23 11:13:23;;;;;;;9.27;4.70;;;;;;;31.94;42.17;100710.56;5039265;28;20055;-80
2022/07/23 11:16:01;;;;;;;21.13;4.45;;;;;;;31.97;42.10;100715.59;5053847;28;20117;-81
2022/07/23 11:18:42;;;;;;;15.10;4.18;;;;;;;31.98;41.23;100708.94;5031752;28;20498;-80
2022/07/23 11:23:57;;;;;;;10.70;4.28;;;;;;;31.95;40.40;100701.09;5033142;28;20030;-82
2022/07/23 11:26:48;;;;;;;8.80;3.92;;;;;;;31.88;40.04;100702.41;5016713;28;20032;-83
2022/07/23 11:31:56;;;;;;;13.20;4.30;;;;;;;32.10;40.15;100701.28;5035103;28;20550;-83